Decoded Metar for KATY (WATERTOWN in SD, USA) (IATA:ATY) | Meteo·Mobile Aviation Weather
aviador You're here:

KATY Decoded Metar

WATERTOWN in SD, USA
Report Time2018-12-11 02:53:00
UTC Time2018-12-11 03:15:16
Flight Rules vfr VFR
WindCalm
Visibility9999 m
Phenomena:N/A
Clouds:N/A
Expected CloudBase > 400 ft AGL from Temp-Dew spread
CeilingNone
Temp-8°C (ISA -20)
Dew Point-9°C (93% RH)
AAT-11.0°C
QNH1015 hPa
Density Alt-696 ft
Elevation1,745 ft
Report Wrong Elevation
Raw Report
KATY 110253Z AUTO 00000KT 10SM CLR M08/M09 A2997 RMK AO2 SLP184
T10831094 53003=

Extra information for KATY:More info

Metar Taf Metar & Taf Last 4 Metars F.Rules Stats Wind Profile Meteogram Temp Stats Airport Information Weather charts Add Link Nearby VenuesMetar ALERT Operation Metar Decoded Social comments

AIRNAV info for KATY